createdAt,value
2022-07-29T00:00:15.422Z,18.31
2022-07-29T00:02:42.363Z,18.32
2022-07-29T00:05:11.018Z,18.29
2022-07-29T00:07:37.840Z,18.26
2022-07-29T00:10:05.515Z,18.25
2022-07-29T00:12:32.292Z,18.22
2022-07-29T00:14:59.174Z,18.20
2022-07-29T00:17:26.239Z,18.18
2022-07-29T00:19:53.238Z,18.19
2022-07-29T00:22:21.218Z,18.20
2022-07-29T00:24:51.155Z,18.19
2022-07-29T00:27:19.066Z,18.16
2022-07-29T00:29:46.264Z,18.16
2022-07-29T00:32:13.295Z,18.16
2022-07-29T00:34:58.557Z,18.15
2022-07-29T00:37:26.089Z,18.14
2022-07-29T00:39:52.924Z,18.14
2022-07-29T00:42:19.791Z,18.13
2022-07-29T00:44:46.647Z,18.08
2022-07-29T00:47:14.042Z,18.07
2022-07-29T00:49:43.341Z,18.07
2022-07-29T00:52:12.393Z,18.05
2022-07-29T00:54:44.438Z,18.02
2022-07-29T00:57:13.184Z,17.94
2022-07-29T00:59:40.576Z,17.92
2022-07-29T01:02:07.726Z,17.86
2022-07-29T01:04:34.969Z,17.83
2022-07-29T01:07:06.176Z,17.78
2022-07-29T01:09:45.942Z,17.76
2022-07-29T01:12:29.592Z,17.76
2022-07-29T01:14:57.428Z,17.76
2022-07-29T01:17:33.594Z,17.80
2022-07-29T01:20:31.346Z,17.98
2022-07-29T01:23:24.676Z,18.06
2022-07-29T01:26:28.360Z,18.02
2022-07-29T01:29:28.982Z,17.93
2022-07-29T01:32:27.680Z,17.83
2022-07-29T01:35:22.014Z,17.88
2022-07-29T01:38:06.331Z,17.83
2022-07-29T01:40:52.253Z,17.75
2022-07-29T01:43:28.448Z,17.65
2022-07-29T01:46:04.037Z,17.59
2022-07-29T01:49:07.061Z,17.59
2022-07-29T01:51:47.443Z,17.53
2022-07-29T01:54:36.386Z,17.45
2022-07-29T01:57:07.793Z,17.38
2022-07-29T01:59:38.213Z,17.27
2022-07-29T02:02:09.662Z,17.19
2022-07-29T02:04:38.856Z,17.13
2022-07-29T02:07:10.927Z,17.05
2022-07-29T02:09:40.517Z,16.89
2022-07-29T02:12:09.115Z,16.59
2022-07-29T02:14:44.352Z,16.31
2022-07-29T02:17:14.436Z,16.05
2022-07-29T02:19:45.674Z,15.78
2022-07-29T02:22:14.685Z,15.58
2022-07-29T02:24:43.905Z,15.50
2022-07-29T02:27:12.625Z,15.44
2022-07-29T02:29:41.663Z,15.36
2022-07-29T02:32:12.130Z,15.32
2022-07-29T02:34:42.273Z,15.29
2022-07-29T02:37:12.237Z,15.26
2022-07-29T02:39:43.231Z,15.24
2022-07-29T02:42:16.579Z,15.24
2022-07-29T02:44:43.810Z,15.15
2022-07-29T02:47:41.300Z,15.10
2022-07-29T02:50:17.153Z,15.02
2022-07-29T02:53:10.075Z,14.96
2022-07-29T02:55:46.714Z,14.94
2022-07-29T02:58:29.271Z,14.92
2022-07-29T03:01:04.135Z,14.89
2022-07-29T03:03:38.685Z,14.86
2022-07-29T03:06:09.438Z,14.88
2022-07-29T03:08:58.680Z,14.89
2022-07-29T03:11:42.499Z,14.89
2022-07-29T03:14:14.865Z,14.91
2022-07-29T03:16:42.966Z,14.90
2022-07-29T03:19:10.147Z,14.91
2022-07-29T03:21:36.951Z,14.90
2022-07-29T03:24:09.775Z,14.92
2022-07-29T03:26:37.261Z,14.95
2022-07-29T03:29:04.157Z,14.99
2022-07-29T03:31:31.002Z,15.03
2022-07-29T03:33:58.474Z,15.05
2022-07-29T03:36:25.793Z,15.07
2022-07-29T03:38:53.678Z,15.09
2022-07-29T03:41:23.790Z,15.10
2022-07-29T03:43:52.848Z,15.10
2022-07-29T03:46:25.020Z,15.12
2022-07-29T03:48:57.556Z,15.13
2022-07-29T03:51:33.372Z,15.13
2022-07-29T03:54:09.878Z,15.14
2022-07-29T03:56:43.649Z,15.14
2022-07-29T03:59:13.735Z,15.13
2022-07-29T04:01:42.964Z,15.13
2022-07-29T04:04:09.952Z,15.15
2022-07-29T04:06:46.255Z,15.24
2022-07-29T04:09:15.810Z,15.20
2022-07-29T04:12:02.476Z,15.17
2022-07-29T04:14:33.132Z,15.14
2022-07-29T04:17:04.855Z,15.15
2022-07-29T04:19:32.546Z,15.15
2022-07-29T04:22:00.769Z,15.16
2022-07-29T04:24:27.876Z,15.15
2022-07-29T04:26:54.884Z,15.15
2022-07-29T04:29:21.692Z,15.15
2022-07-29T04:31:48.575Z,15.14
2022-07-29T04:34:15.766Z,15.08
2022-07-29T04:36:42.784Z,15.08
2022-07-29T04:39:09.536Z,15.11
2022-07-29T04:41:36.511Z,15.15
2022-07-29T04:44:06.801Z,15.17
2022-07-29T04:46:34.586Z,15.15
2022-07-29T04:49:01.728Z,15.15
2022-07-29T04:51:28.590Z,15.14
2022-07-29T04:53:55.369Z,15.15
2022-07-29T04:56:22.219Z,15.20
2022-07-29T04:58:49.097Z,15.25
2022-07-29T05:01:16.006Z,15.29
2022-07-29T05:03:43.172Z,15.27
2022-07-29T05:06:09.965Z,15.24
2022-07-29T05:08:36.897Z,15.20
2022-07-29T05:11:12.120Z,15.14
2022-07-29T05:13:45.311Z,15.10
2022-07-29T05:16:14.129Z,15.11
2022-07-29T05:18:41.410Z,15.16
2022-07-29T05:21:08.267Z,15.23
2022-07-29T05:23:35.109Z,15.26
2022-07-29T05:26:01.910Z,15.27
2022-07-29T05:28:28.708Z,15.33
2022-07-29T05:30:55.562Z,15.37
2022-07-29T05:33:35.912Z,15.40
2022-07-29T05:36:07.869Z,15.40
2022-07-29T05:38:36.630Z,15.35
2022-07-29T05:41:03.901Z,15.29
2022-07-29T05:43:30.881Z,15.29
2022-07-29T05:45:58.030Z,15.31
2022-07-29T05:48:25.562Z,15.38
2022-07-29T05:50:52.545Z,15.43
2022-07-29T05:53:20.803Z,15.49
2022-07-29T05:55:51.729Z,15.56
2022-07-29T05:58:19.241Z,15.59
2022-07-29T06:00:46.651Z,15.64
2022-07-29T06:03:13.657Z,15.69
2022-07-29T06:05:40.414Z,15.72
2022-07-29T06:08:08.177Z,15.71
2022-07-29T06:10:38.706Z,15.75
2022-07-29T06:13:05.637Z,15.78
2022-07-29T06:15:32.693Z,15.82
2022-07-29T06:18:01.288Z,15.82
2022-07-29T06:20:32.858Z,15.87
2022-07-29T06:23:00.535Z,15.92
2022-07-29T06:25:30.384Z,15.88
2022-07-29T06:27:58.211Z,15.91
2022-07-29T06:30:25.316Z,15.98
2022-07-29T06:32:52.189Z,16.05
2022-07-29T06:35:38.840Z,16.08
2022-07-29T06:38:09.605Z,16.10
2022-07-29T06:41:01.761Z,16.15
2022-07-29T06:43:52.236Z,16.22
2022-07-29T06:46:23.026Z,16.30
2022-07-29T06:48:50.881Z,16.36
2022-07-29T06:51:22.542Z,16.45
2022-07-29T06:53:58.098Z,16.51
2022-07-29T06:56:26.206Z,16.58
2022-07-29T06:58:53.245Z,16.63
2022-07-29T07:01:20.945Z,16.70
2022-07-29T07:03:48.815Z,16.71
2022-07-29T07:06:15.690Z,16.82
2022-07-29T07:08:42.555Z,16.89
2022-07-29T07:11:09.884Z,16.99
2022-07-29T07:13:37.014Z,17.03
2022-07-29T07:16:05.331Z,17.11
2022-07-29T07:18:32.223Z,17.18
2022-07-29T07:20:59.396Z,17.24
2022-07-29T07:23:26.427Z,17.31
2022-07-29T07:25:53.828Z,17.40
2022-07-29T07:28:24.479Z,17.44
2022-07-29T07:30:52.908Z,17.50
2022-07-29T07:33:20.736Z,17.57
2022-07-29T07:35:48.153Z,17.64
2022-07-29T07:38:14.983Z,17.74
2022-07-29T07:40:42.698Z,17.76
2022-07-29T07:43:09.547Z,17.74
2022-07-29T07:45:38.341Z,17.73
2022-07-29T07:48:06.128Z,17.72
2022-07-29T07:50:33.193Z,17.76
2022-07-29T07:53:00.399Z,17.81
2022-07-29T07:55:27.392Z,17.83
2022-07-29T07:57:55.886Z,17.86
2022-07-29T08:00:23.837Z,17.89
2022-07-29T08:02:51.707Z,17.90
2022-07-29T08:05:19.142Z,17.91
2022-07-29T08:07:49.032Z,17.90
2022-07-29T08:10:36.364Z,17.83
2022-07-29T08:13:09.227Z,17.88
2022-07-29T08:15:36.334Z,18.03
2022-07-29T08:18:08.508Z,18.19
2022-07-29T08:20:37.379Z,18.29
2022-07-29T08:23:05.679Z,18.31
2022-07-29T08:25:34.662Z,18.58
2022-07-29T08:28:05.941Z,19.27
2022-07-29T08:30:33.327Z,19.91
2022-07-29T08:33:00.647Z,20.52
2022-07-29T08:35:35.088Z,21.10
2022-07-29T08:38:04.306Z,21.51
2022-07-29T08:40:32.675Z,21.97
2022-07-29T08:43:06.979Z,22.24
2022-07-29T08:45:48.113Z,22.45
2022-07-29T08:48:23.057Z,22.59
2022-07-29T08:50:55.550Z,22.57
2022-07-29T08:53:25.281Z,22.59
2022-07-29T08:55:52.012Z,22.55
2022-07-29T08:58:22.942Z,22.56
2022-07-29T09:00:55.579Z,22.67
2022-07-29T09:03:28.244Z,22.84
2022-07-29T09:05:55.488Z,22.91
2022-07-29T09:08:22.841Z,22.90
2022-07-29T09:10:50.234Z,22.83
2022-07-29T09:13:17.033Z,22.85
2022-07-29T09:15:43.780Z,22.85
2022-07-29T09:18:30.229Z,23.02
2022-07-29T09:21:16.634Z,23.22
2022-07-29T09:24:12.346Z,23.39
2022-07-29T09:26:47.397Z,23.33
2022-07-29T09:29:17.728Z,23.29
2022-07-29T09:31:51.153Z,23.49
2022-07-29T09:34:31.143Z,23.64
2022-07-29T09:36:58.443Z,23.66
2022-07-29T09:39:46.788Z,23.78
2022-07-29T09:42:16.822Z,23.81
2022-07-29T09:44:51.593Z,23.90
2022-07-29T09:47:20.084Z,24.07
2022-07-29T09:49:59.040Z,24.16
2022-07-29T09:52:33.962Z,24.30
2022-07-29T09:55:17.900Z,24.53
2022-07-29T09:57:46.603Z,24.76
2022-07-29T10:00:20.102Z,24.89
2022-07-29T10:02:48.475Z,25.04
2022-07-29T10:05:36.110Z,25.20
2022-07-29T10:08:03.318Z,25.20
2022-07-29T10:10:38.946Z,25.19
2022-07-29T10:13:13.575Z,25.17
2022-07-29T10:15:46.735Z,25.15
2022-07-29T10:18:18.091Z,25.17
2022-07-29T10:20:45.242Z,25.09
2022-07-29T10:23:13.593Z,25.08
2022-07-29T10:25:45.942Z,25.12
2022-07-29T10:28:16.587Z,25.17
2022-07-29T10:30:46.647Z,25.13
2022-07-29T10:33:52.449Z,25.10
2022-07-29T10:36:46.420Z,24.85
2022-07-29T10:39:49.683Z,24.84
2022-07-29T10:42:29.727Z,24.93
2022-07-29T10:45:04.796Z,25.02
2022-07-29T10:47:32.195Z,25.14
2022-07-29T10:50:05.678Z,25.19
2022-07-29T10:52:50.571Z,25.17
2022-07-29T10:55:43.089Z,25.35
2022-07-29T10:58:20.474Z,25.47
2022-07-29T11:00:57.521Z,25.62
2022-07-29T11:03:52.232Z,25.81
2022-07-29T11:06:28.117Z,25.92
2022-07-29T11:09:25.910Z,26.08
2022-07-29T11:12:25.054Z,26.19
2022-07-29T11:14:55.686Z,26.25
2022-07-29T11:17:23.438Z,26.31
2022-07-29T11:19:52.660Z,26.42
2022-07-29T11:22:43.169Z,26.48
2022-07-29T11:25:17.539Z,26.55
2022-07-29T11:27:45.994Z,26.63
2022-07-29T11:30:13.395Z,26.56
2022-07-29T11:32:48.642Z,26.62
2022-07-29T11:35:37.073Z,26.68
2022-07-29T11:38:29.276Z,26.93
2022-07-29T11:41:25.412Z,27.35
2022-07-29T11:43:55.941Z,27.77
2022-07-29T11:46:49.886Z,28.20
2022-07-29T11:49:32.158Z,28.55
2022-07-29T11:52:04.145Z,28.87
2022-07-29T11:54:57.445Z,28.80
2022-07-29T11:57:22.899Z,28.72
2022-07-29T12:00:10.031Z,28.75
2022-07-29T12:02:48.040Z,28.86
2022-07-29T12:05:22.288Z,28.96
2022-07-29T12:08:20.013Z,29.15
2022-07-29T12:10:50.298Z,29.18
2022-07-29T12:13:20.565Z,29.66
2022-07-29T12:16:01.464Z,30.03
2022-07-29T12:18:29.317Z,30.16
2022-07-29T12:21:06.826Z,30.25
2022-07-29T12:23:35.450Z,30.07
2022-07-29T12:26:07.682Z,30.13
2022-07-29T12:28:39.821Z,30.28
2022-07-29T12:31:13.847Z,30.53
2022-07-29T12:33:41.013Z,30.32
2022-07-29T12:36:17.135Z,30.10
2022-07-29T12:38:45.606Z,29.79
2022-07-29T12:41:13.804Z,29.66
2022-07-29T12:43:54.523Z,29.78
2022-07-29T12:46:21.557Z,30.06
2022-07-29T12:48:57.581Z,30.42
2022-07-29T12:51:37.681Z,30.46
2022-07-29T12:54:15.710Z,30.55
2022-07-29T12:56:45.626Z,30.77
2022-07-29T12:59:20.162Z,31.00
2022-07-29T13:01:50.226Z,31.01
2022-07-29T13:04:33.029Z,30.99
2022-07-29T13:07:10.608Z,31.10
2022-07-29T13:10:12.701Z,31.21
2022-07-29T13:12:40.306Z,31.26
2022-07-29T13:15:15.783Z,31.35
2022-07-29T13:17:47.998Z,31.31
2022-07-29T13:20:15.201Z,31.16
2022-07-29T13:22:43.355Z,30.91
2022-07-29T13:25:10.906Z,30.51
2022-07-29T13:27:45.490Z,30.00
2022-07-29T13:30:12.956Z,29.56
2022-07-29T13:32:39.811Z,29.23
2022-07-29T13:35:09.319Z,29.03
2022-07-29T13:37:39.388Z,28.95
2022-07-29T13:40:09.504Z,29.19
2022-07-29T13:42:36.764Z,29.62
2022-07-29T13:45:05.469Z,30.10
2022-07-29T13:47:33.283Z,30.59
2022-07-29T13:50:07.157Z,31.00
2022-07-29T13:52:35.066Z,31.46
2022-07-29T13:55:03.326Z,31.74
2022-07-29T13:57:30.569Z,31.91
2022-07-29T13:59:58.131Z,32.49
2022-07-29T14:02:26.210Z,32.60
2022-07-29T14:04:55.046Z,32.75
2022-07-29T14:07:23.464Z,33.06
2022-07-29T14:09:51.053Z,32.86
2022-07-29T14:12:17.941Z,32.86
2022-07-29T14:14:44.737Z,33.22
2022-07-29T14:17:14.977Z,33.44
2022-07-29T14:19:42.393Z,33.36
2022-07-29T14:22:10.909Z,33.43
2022-07-29T14:24:39.050Z,33.28
2022-07-29T14:27:08.669Z,33.28
2022-07-29T14:29:37.189Z,33.31
2022-07-29T14:32:11.180Z,33.38
2022-07-29T14:34:38.947Z,33.27
2022-07-29T14:37:07.076Z,33.12
2022-07-29T14:39:42.627Z,33.06
2022-07-29T14:42:12.454Z,33.26
2022-07-29T14:44:42.424Z,33.14
2022-07-29T14:47:09.966Z,32.70
2022-07-29T14:49:36.882Z,32.39
2022-07-29T14:52:04.387Z,32.28
2022-07-29T14:54:31.154Z,32.25
2022-07-29T14:56:58.457Z,32.34
2022-07-29T14:59:27.074Z,32.34
2022-07-29T15:01:54.398Z,32.49
2022-07-29T15:04:21.358Z,32.40
2022-07-29T15:06:48.830Z,32.21
2022-07-29T15:09:15.633Z,32.06
2022-07-29T15:11:42.520Z,32.12
2022-07-29T15:14:09.347Z,32.21
2022-07-29T15:16:38.388Z,32.28
2022-07-29T15:19:05.790Z,32.20
2022-07-29T15:21:33.084Z,32.05
2022-07-29T15:23:59.898Z,31.91
2022-07-29T15:26:27.275Z,31.78
2022-07-29T15:28:54.284Z,31.69
2022-07-29T15:31:21.088Z,31.81
2022-07-29T15:33:47.973Z,32.03
2022-07-29T15:36:35.629Z,32.03
2022-07-29T15:39:02.241Z,32.02
2022-07-29T15:41:29.052Z,31.83
2022-07-29T15:43:55.872Z,31.60
2022-07-29T15:46:41.043Z,31.53
2022-07-29T15:49:08.635Z,31.27
2022-07-29T15:51:35.930Z,30.81
2022-07-29T15:54:04.550Z,30.56
2022-07-29T15:56:32.269Z,30.21
2022-07-29T15:58:59.543Z,29.77
2022-07-29T16:01:28.365Z,29.28
2022-07-29T16:03:55.339Z,28.78
2022-07-29T16:06:22.379Z,28.50
2022-07-29T16:08:49.260Z,28.28
2022-07-29T16:11:16.098Z,27.97
2022-07-29T16:13:42.864Z,27.72
2022-07-29T16:16:10.467Z,27.61
2022-07-29T16:18:37.409Z,27.77
2022-07-29T16:21:04.242Z,28.03
2022-07-29T16:23:30.988Z,28.44
2022-07-29T16:26:00.245Z,28.73
2022-07-29T16:28:30.293Z,28.96
2022-07-29T16:30:57.553Z,29.25
2022-07-29T16:33:25.152Z,29.32
2022-07-29T16:35:53.130Z,29.34
2022-07-29T16:38:20.429Z,29.28
2022-07-29T16:40:47.177Z,29.15
2022-07-29T16:43:14.162Z,29.22
2022-07-29T16:45:45.798Z,29.28
2022-07-29T16:48:18.097Z,29.26
2022-07-29T16:50:46.276Z,29.21
2022-07-29T16:53:13.209Z,29.21
2022-07-29T16:55:42.396Z,29.32
2022-07-29T16:58:11.786Z,29.40
2022-07-29T17:00:39.381Z,29.32
2022-07-29T17:03:06.176Z,29.04
2022-07-29T17:05:53.631Z,28.74
2022-07-29T17:08:20.279Z,28.46
2022-07-29T17:10:47.553Z,28.17
2022-07-29T17:13:14.729Z,27.96
2022-07-29T17:15:42.997Z,27.83
2022-07-29T17:18:12.896Z,27.59
2022-07-29T17:20:42.164Z,27.39
2022-07-29T17:23:09.126Z,27.26
2022-07-29T17:25:36.086Z,27.20
2022-07-29T17:28:02.851Z,27.18
2022-07-29T17:30:30.129Z,27.14
2022-07-29T17:32:56.886Z,27.15
2022-07-29T17:35:42.244Z,27.07
2022-07-29T17:38:09.005Z,26.98
2022-07-29T17:40:35.830Z,26.87
2022-07-29T17:43:04.694Z,26.73
2022-07-29T17:45:49.803Z,26.56
2022-07-29T17:48:18.966Z,26.35
2022-07-29T17:50:47.267Z,26.26
2022-07-29T17:53:16.302Z,26.20
2022-07-29T17:55:48.626Z,26.12
2022-07-29T17:58:16.472Z,26.00
2022-07-29T18:00:44.312Z,25.92
2022-07-29T18:03:11.284Z,25.86
2022-07-29T18:05:38.139Z,25.75
2022-07-29T18:08:05.405Z,25.64
2022-07-29T18:10:32.504Z,25.58
2022-07-29T18:12:59.597Z,25.52
2022-07-29T18:15:26.518Z,25.43
2022-07-29T18:17:57.071Z,25.34
2022-07-29T18:20:26.395Z,25.23
2022-07-29T18:22:53.429Z,25.15
2022-07-29T18:25:20.649Z,25.08
2022-07-29T18:27:47.611Z,25.03
2022-07-29T18:30:17.531Z,24.96
2022-07-29T18:32:54.485Z,24.92
2022-07-29T18:35:32.419Z,24.84
2022-07-29T18:38:02.142Z,24.74
2022-07-29T18:40:30.181Z,24.64
2022-07-29T18:42:56.994Z,24.56
2022-07-29T18:45:28.673Z,24.45
2022-07-29T18:47:56.832Z,24.37
2022-07-29T18:50:29.611Z,24.28
2022-07-29T18:52:58.890Z,24.15
2022-07-29T18:55:26.975Z,24.08
2022-07-29T18:57:56.090Z,24.04
2022-07-29T19:00:25.970Z,23.95
2022-07-29T19:02:53.370Z,23.88
2022-07-29T19:05:21.172Z,23.77
2022-07-29T19:07:48.007Z,23.74
2022-07-29T19:10:14.857Z,23.63
2022-07-29T19:12:42.344Z,23.51
2022-07-29T19:15:10.682Z,23.41
2022-07-29T19:17:38.821Z,23.33
2022-07-29T19:20:07.748Z,23.24
2022-07-29T19:22:34.840Z,23.11
2022-07-29T19:25:01.663Z,23.00
2022-07-29T19:27:28.473Z,22.90
2022-07-29T19:29:58.982Z,22.81
2022-07-29T19:32:26.562Z,22.74
2022-07-29T19:35:12.351Z,22.63
2022-07-29T19:37:39.213Z,22.54
2022-07-29T19:40:07.329Z,22.47
2022-07-29T19:42:35.103Z,22.38
2022-07-29T19:45:01.855Z,22.33
2022-07-29T19:47:28.598Z,22.25
2022-07-29T19:49:55.421Z,22.17
2022-07-29T19:52:22.209Z,22.12
2022-07-29T19:54:48.969Z,22.09
2022-07-29T19:57:15.710Z,22.06
2022-07-29T19:59:42.981Z,22.03
2022-07-29T20:02:12.267Z,22.01
2022-07-29T20:04:39.656Z,21.98
2022-07-29T20:07:07.298Z,21.91
2022-07-29T20:09:35.005Z,21.87
2022-07-29T20:12:02.046Z,21.83
2022-07-29T20:14:28.925Z,21.80
2022-07-29T20:16:55.706Z,21.75
2022-07-29T20:19:22.545Z,21.71
2022-07-29T20:21:50.723Z,21.66
2022-07-29T20:24:19.373Z,21.62
2022-07-29T20:26:46.801Z,21.58
2022-07-29T20:29:13.817Z,21.55
2022-07-29T20:31:43.154Z,21.51
2022-07-29T20:34:10.350Z,21.48
2022-07-29T20:36:37.613Z,21.45
2022-07-29T20:39:04.433Z,21.42
2022-07-29T20:41:31.832Z,21.37
2022-07-29T20:43:59.858Z,21.30
2022-07-29T20:46:26.831Z,21.27
2022-07-29T20:48:53.906Z,21.20
2022-07-29T20:51:21.137Z,21.12
2022-07-29T20:53:49.137Z,21.04
2022-07-29T20:56:15.915Z,20.93
2022-07-29T20:58:42.771Z,20.84
2022-07-29T21:01:09.979Z,20.74
2022-07-29T21:03:37.489Z,20.65
2022-07-29T21:06:04.437Z,20.55
2022-07-29T21:08:32.041Z,20.45
2022-07-29T21:10:58.827Z,20.37
2022-07-29T21:13:25.614Z,20.30
2022-07-29T21:15:56.252Z,20.21
2022-07-29T21:18:34.346Z,20.10
2022-07-29T21:21:01.305Z,20.00
2022-07-29T21:23:28.426Z,19.92
2022-07-29T21:25:55.700Z,19.87
2022-07-29T21:28:26.500Z,19.84
2022-07-29T21:30:56.379Z,19.81
2022-07-29T21:33:24.941Z,19.79
2022-07-29T21:36:20.193Z,19.77
2022-07-29T21:38:39.822Z,19.76
2022-07-29T21:41:07.271Z,19.75
2022-07-29T21:43:34.156Z,19.74
2022-07-29T21:46:01.139Z,19.70
2022-07-29T21:48:29.067Z,19.67
2022-07-29T21:50:56.470Z,19.66
2022-07-29T21:53:24.951Z,19.62
2022-07-29T21:55:54.338Z,19.59
2022-07-29T21:58:22.933Z,19.52
2022-07-29T22:00:49.850Z,19.45
2022-07-29T22:03:17.134Z,19.40
2022-07-29T22:05:44.671Z,19.37
2022-07-29T22:08:11.724Z,19.34
2022-07-29T22:10:38.638Z,19.30
2022-07-29T22:13:05.496Z,19.24
2022-07-29T22:15:32.321Z,19.21
2022-07-29T22:17:59.583Z,19.15
2022-07-29T22:20:26.921Z,19.09
2022-07-29T22:22:54.763Z,19.07
2022-07-29T22:25:22.752Z,19.01
2022-07-29T22:27:50.002Z,18.96
2022-07-29T22:30:17.157Z,18.91
2022-07-29T22:32:44.454Z,18.86
2022-07-29T22:35:11.380Z,18.84
2022-07-29T22:37:39.093Z,18.82
2022-07-29T22:40:07.296Z,18.74
2022-07-29T22:42:35.528Z,18.69
2022-07-29T22:45:02.801Z,18.65
2022-07-29T22:47:46.638Z,18.62
2022-07-29T22:50:16.100Z,18.58
2022-07-29T22:52:42.917Z,18.55
2022-07-29T22:55:09.843Z,18.51
2022-07-29T22:57:36.660Z,18.48
2022-07-29T23:00:06.040Z,18.46
2022-07-29T23:02:32.817Z,18.44
2022-07-29T23:04:59.725Z,18.44
2022-07-29T23:07:26.474Z,18.47
2022-07-29T23:09:53.522Z,18.43
2022-07-29T23:12:20.309Z,18.38
2022-07-29T23:14:47.266Z,18.31
2022-07-29T23:17:14.166Z,18.26
2022-07-29T23:19:41.085Z,18.21
2022-07-29T23:22:07.848Z,18.14
2022-07-29T23:24:34.654Z,18.05
2022-07-29T23:27:01.760Z,17.99
2022-07-29T23:29:28.716Z,17.95
2022-07-29T23:31:55.457Z,17.92
2022-07-29T23:34:22.360Z,17.93
2022-07-29T23:36:49.131Z,17.88
2022-07-29T23:39:16.680Z,17.86
2022-07-29T23:41:43.595Z,17.80
2022-07-29T23:44:10.324Z,17.70
2022-07-29T23:46:37.653Z,17.60
2022-07-29T23:49:04.703Z,17.55
2022-07-29T23:51:32.566Z,17.50
2022-07-29T23:53:59.893Z,17.48
2022-07-29T23:56:26.680Z,17.46
2022-07-29T23:58:54.336Z,17.43
